Аэропорт
Алматы (UAAA)

 UAAA / ALA
ЗЦ Центральная Азия
Алматы (UAAA)
Алматы (UAAA)
 43.35210, 77.04050  / 2234 ft

 UAAA 201200Z 19002MPS 160V230 9999 FEW100 SCT200 06/M01 Q1022 R88/2/0150 NOSIG
 TAF UAAA 200504Z 2006/2106 34003G08MPS 3100 -SHRASN BKN011CB OVC100 TX00/2006Z TNM05/2101Z TEMPO 2006/2013 23003G11MPS 1500 SHSN BR BKN005 OVC011CB TEMPO 2013/2103 16003MPS 0500 FZFG FU FEW003 TEMPO 2103/2106 VRB02MPS 1500 BR FU
UAAA Jepp 20-12, UAAA Lido 20-06
показать схемы
Название сценария Тип сценария Flight Simulator 9 Flight Simulator X Prepar3D v2 Prepar3D v3 Prepar3D v4 Prepar3D v5 xPlane
Recommended scenery for FS9 бесплатный
Recommended scenery for FSX бесплатный
UAAA 2020 бесплатный
UAAA 2020 бесплатный


2020 © VATRUS division (Privacy Policy)